createdAt,value
2018-02-20T00:00:29.102Z,50.83
2018-02-20T00:02:56.494Z,54.40
2018-02-20T00:05:23.886Z,47.40
2018-02-20T00:07:51.279Z,49.57
2018-02-20T00:10:18.718Z,49.33
2018-02-20T00:12:46.117Z,47.07
2018-02-20T00:15:13.623Z,47.50
2018-02-20T00:17:41.029Z,56.40
2018-02-20T00:20:08.415Z,49.10
2018-02-20T00:22:35.912Z,51.10
2018-02-20T00:25:03.346Z,48.97
2018-02-20T00:27:30.802Z,49.70
2018-02-20T00:29:58.216Z,51.03
2018-02-20T00:32:25.607Z,47.93
2018-02-20T00:34:53.039Z,54.17
2018-02-20T00:37:20.518Z,52.47
2018-02-20T00:39:47.919Z,62.80
2018-02-20T00:42:15.371Z,60.90
2018-02-20T00:44:42.763Z,53.57
2018-02-20T00:47:10.259Z,55.23
2018-02-20T00:49:37.650Z,57.80
2018-02-20T00:52:05.047Z,56.37
2018-02-20T00:54:32.498Z,48.70
2018-02-20T00:56:59.892Z,59.93
2018-02-20T00:59:27.312Z,57.80
2018-02-20T01:01:54.791Z,50.77
2018-02-20T01:04:22.201Z,54.23
2018-02-20T01:06:49.621Z,54.80
2018-02-20T01:09:17.040Z,59.27
2018-02-20T01:11:44.435Z,55.80
2018-02-20T01:14:11.843Z,56.83
2018-02-20T01:16:39.247Z,57.63
2018-02-20T01:19:07.031Z,65.27
2018-02-20T01:21:34.419Z,54.80
2018-02-20T01:24:01.882Z,62.63
2018-02-20T01:26:29.340Z,61.13
2018-02-20T01:28:56.794Z,53.53
2018-02-20T01:31:24.209Z,63.63
2018-02-20T01:33:51.603Z,64.83
2018-02-20T01:36:19.012Z,61.20
2018-02-20T01:38:46.520Z,61.17
2018-02-20T01:41:13.911Z,61.90
2018-02-20T01:43:41.319Z,61.13
2018-02-20T01:46:08.795Z,64.47
2018-02-20T01:48:36.219Z,53.80
2018-02-20T01:51:08.561Z,54.53
2018-02-20T01:53:36.050Z,59.03
2018-02-20T01:56:03.537Z,56.20
2018-02-20T01:58:30.943Z,56.43
2018-02-20T02:00:58.434Z,60.77
2018-02-20T02:03:25.951Z,62.10
2018-02-20T02:05:53.343Z,60.73
2018-02-20T02:08:20.739Z,62.20
2018-02-20T02:10:48.127Z,59.60
2018-02-20T02:13:15.524Z,54.00
2018-02-20T02:15:43.167Z,53.83
2018-02-20T02:18:10.571Z,56.13
2018-02-20T02:20:37.971Z,56.20
2018-02-20T02:23:05.454Z,62.97
2018-02-20T02:25:32.851Z,55.87
2018-02-20T02:28:00.238Z,53.50
2018-02-20T02:30:27.709Z,54.37
2018-02-20T02:32:55.101Z,57.40
2018-02-20T02:35:22.518Z,59.77
2018-02-20T02:37:49.915Z,57.93
2018-02-20T02:40:17.331Z,52.63
2018-02-20T02:42:44.718Z,54.43
2018-02-20T02:45:12.131Z,54.47
2018-02-20T02:47:39.523Z,52.83
2018-02-20T02:50:06.937Z,57.80
2018-02-20T02:52:34.319Z,51.87
2018-02-20T02:55:01.759Z,55.50
2018-02-20T02:57:29.304Z,61.47
2018-02-20T02:59:56.794Z,56.27
2018-02-20T03:02:24.216Z,44.40
2018-02-20T03:04:51.678Z,52.40
2018-02-20T03:07:19.131Z,62.60
2018-02-20T03:09:46.555Z,55.17
2018-02-20T03:12:14.054Z,52.00
2018-02-20T03:14:41.455Z,51.37
2018-02-20T03:17:08.919Z,57.50
2018-02-20T03:19:35.629Z,50.50
2018-02-20T03:22:03.033Z,48.73
2018-02-20T03:24:30.423Z,51.80
2018-02-20T03:26:57.818Z,55.90
2018-02-20T03:29:25.215Z,49.23
2018-02-20T03:31:52.622Z,54.87
2018-02-20T03:34:20.033Z,51.23
2018-02-20T03:36:47.406Z,58.90
2018-02-20T03:39:14.827Z,48.53
2018-02-20T03:41:42.286Z,47.20
2018-02-20T03:44:09.686Z,49.60
2018-02-20T03:46:37.088Z,48.93
2018-02-20T03:49:04.487Z,47.93
2018-02-20T03:51:32.004Z,46.67
2018-02-20T03:53:59.398Z,55.63
2018-02-20T03:56:26.815Z,53.23
2018-02-20T03:58:54.223Z,52.63
2018-02-20T04:01:21.623Z,51.20
2018-02-20T04:03:49.095Z,56.50
2018-02-20T04:06:16.490Z,48.60
2018-02-20T04:08:43.885Z,51.83
2018-02-20T04:11:11.334Z,56.00
2018-02-20T04:13:38.716Z,55.63
2018-02-20T04:16:06.119Z,56.30
2018-02-20T04:18:33.511Z,59.93
2018-02-20T04:21:00.922Z,56.30
2018-02-20T04:23:28.321Z,47.93
2018-02-20T04:25:55.770Z,76.13
2018-02-20T04:28:23.226Z,54.27
2018-02-20T04:30:50.627Z,53.80
2018-02-20T04:33:18.031Z,53.53
2018-02-20T04:35:45.430Z,64.17
2018-02-20T04:38:12.831Z,56.90
2018-02-20T04:40:40.237Z,58.90
2018-02-20T04:43:07.634Z,53.50
2018-02-20T04:45:35.094Z,61.63
2018-02-20T04:48:03.390Z,61.70
2018-02-20T04:50:30.847Z,53.60
2018-02-20T04:52:58.256Z,56.00
2018-02-20T04:55:25.671Z,58.07
2018-02-20T04:57:53.062Z,63.17
2018-02-20T05:00:20.468Z,58.13
2018-02-20T05:02:47.923Z,58.77
2018-02-20T05:05:15.328Z,54.80
2018-02-20T05:07:42.727Z,57.77
2018-02-20T05:10:10.135Z,61.33
2018-02-20T05:12:37.546Z,58.27
2018-02-20T05:15:04.952Z,67.77
2018-02-20T05:17:32.355Z,58.70
2018-02-20T05:19:59.811Z,62.13
2018-02-20T05:22:27.259Z,65.17
2018-02-20T05:24:54.663Z,74.90
2018-02-20T05:27:22.060Z,72.83
2018-02-20T05:29:49.460Z,62.70
2018-02-20T05:32:16.886Z,78.90
2018-02-20T05:34:44.358Z,62.30
2018-02-20T05:37:11.779Z,72.07
2018-02-20T05:39:39.179Z,72.43
2018-02-20T05:42:06.579Z,69.90
2018-02-20T05:44:34.023Z,66.80
2018-02-20T05:47:01.434Z,75.43
2018-02-20T05:49:28.834Z,60.60
2018-02-20T05:51:56.230Z,71.43
2018-02-20T05:54:23.626Z,62.13
2018-02-20T05:56:51.018Z,68.07
2018-02-20T05:59:18.417Z,61.40
2018-02-20T06:01:45.823Z,62.60
2018-02-20T06:04:13.218Z,63.53
2018-02-20T06:06:40.619Z,69.03
2018-02-20T06:09:08.022Z,78.10
2018-02-20T06:11:35.426Z,72.93
2018-02-20T06:14:02.821Z,69.57
2018-02-20T06:16:30.238Z,68.67
2018-02-20T06:18:57.630Z,67.97
2018-02-20T06:21:25.042Z,66.67
2018-02-20T06:23:52.509Z,77.90
2018-02-20T06:26:19.912Z,87.53
2018-02-20T06:28:47.312Z,74.27
2018-02-20T06:31:14.716Z,77.07
2018-02-20T06:33:42.223Z,80.87
2018-02-20T06:36:09.627Z,83.73
2018-02-20T06:38:37.144Z,86.23
2018-02-20T06:41:04.545Z,77.13
2018-02-20T06:43:31.926Z,74.17
2018-02-20T06:45:59.335Z,89.83
2018-02-20T06:48:26.739Z,80.30
2018-02-20T06:50:54.139Z,91.27
2018-02-20T06:53:21.540Z,78.90
2018-02-20T06:55:48.939Z,85.00
2018-02-20T06:58:16.339Z,80.83
2018-02-20T07:00:43.741Z,70.70
2018-02-20T07:03:11.142Z,75.50
2018-02-20T07:05:38.538Z,68.03
2018-02-20T07:08:05.934Z,58.57
2018-02-20T07:10:33.330Z,65.27
2018-02-20T07:13:00.727Z,63.67
2018-02-20T07:15:28.125Z,61.57
2018-02-20T07:17:55.515Z,47.90
2018-02-20T07:20:22.922Z,51.27
2018-02-20T07:22:50.315Z,48.50
2018-02-20T07:25:17.771Z,46.57
2018-02-20T07:27:45.163Z,50.03
2018-02-20T07:30:13.507Z,45.70
2018-02-20T07:32:40.963Z,48.80
2018-02-20T07:35:08.355Z,46.50
2018-02-20T07:37:35.746Z,43.50
2018-02-20T07:40:03.150Z,42.80
2018-02-20T07:42:30.569Z,51.97
2018-02-20T07:44:57.951Z,42.00
2018-02-20T07:47:25.350Z,44.80
2018-02-20T07:49:52.748Z,50.40
2018-02-20T07:52:20.143Z,54.50
2018-02-20T07:54:47.548Z,40.43
2018-02-20T07:57:14.943Z,39.83
2018-02-20T07:59:42.344Z,43.90
2018-02-20T08:02:09.746Z,45.40
2018-02-20T08:04:37.138Z,46.43
2018-02-20T08:07:04.539Z,50.23
2018-02-20T08:09:31.937Z,43.47
2018-02-20T08:11:59.335Z,49.10
2018-02-20T08:14:26.737Z,45.50
2018-02-20T08:16:54.140Z,47.53
2018-02-20T08:19:21.531Z,40.70
2018-02-20T08:21:48.934Z,42.97
2018-02-20T08:24:16.339Z,41.50
2018-02-20T08:26:43.738Z,43.70
2018-02-20T08:29:11.131Z,41.60
2018-02-20T08:31:38.547Z,43.20
2018-02-20T08:34:05.943Z,49.70
2018-02-20T08:36:33.437Z,43.50
2018-02-20T08:39:00.831Z,42.73
2018-02-20T08:41:28.234Z,43.40
2018-02-20T08:43:55.734Z,37.90
2018-02-20T08:46:23.196Z,38.00
2018-02-20T08:48:50.594Z,43.57
2018-02-20T08:51:18.110Z,46.00
2018-02-20T08:53:45.503Z,39.23
2018-02-20T08:56:12.914Z,42.37
2018-02-20T08:58:40.369Z,43.80
2018-02-20T09:01:07.774Z,37.90
2018-02-20T09:03:35.175Z,40.67
2018-02-20T09:06:02.574Z,38.23
2018-02-20T09:08:29.971Z,41.77
2018-02-20T09:10:57.379Z,46.50
2018-02-20T09:13:24.812Z,40.00
2018-02-20T09:15:52.238Z,42.50
2018-02-20T09:18:19.635Z,36.13
2018-02-20T09:20:47.043Z,38.47
2018-02-20T09:23:14.446Z,45.17
2018-02-20T09:25:41.867Z,35.90
2018-02-20T09:28:09.259Z,36.07
2018-02-20T09:30:36.698Z,44.80
2018-02-20T09:33:04.521Z,35.73
2018-02-20T09:35:31.914Z,37.33
2018-02-20T09:37:59.348Z,33.10
2018-02-20T09:40:26.721Z,43.40
2018-02-20T09:42:54.169Z,37.10
2018-02-20T09:45:21.578Z,41.43
2018-02-20T09:47:48.994Z,39.83
2018-02-20T09:50:16.395Z,48.87
2018-02-20T09:52:43.807Z,35.63
2018-02-20T09:55:11.205Z,37.50
2018-02-20T09:57:38.718Z,41.57
2018-02-20T10:00:06.111Z,44.73
2018-02-20T10:02:33.514Z,44.40
2018-02-20T10:05:00.911Z,35.77
2018-02-20T10:07:28.324Z,40.07
2018-02-20T10:09:55.726Z,41.87
2018-02-20T10:12:23.128Z,36.87
2018-02-20T10:14:50.518Z,37.70
2018-02-20T10:17:17.914Z,43.63
2018-02-20T10:19:45.307Z,38.57
2018-02-20T10:22:12.705Z,35.90
2018-02-20T10:24:40.099Z,36.07
2018-02-20T10:27:07.499Z,36.80
2018-02-20T10:29:35.286Z,40.27
2018-02-20T10:32:02.699Z,36.77
2018-02-20T10:34:30.096Z,41.20
2018-02-20T10:36:57.498Z,42.03
2018-02-20T10:39:24.885Z,37.90
2018-02-20T10:41:52.283Z,36.43
2018-02-20T10:44:19.679Z,41.87
2018-02-20T10:46:47.075Z,38.73
2018-02-20T10:49:14.469Z,36.80
2018-02-20T10:51:41.879Z,42.00
2018-02-20T10:54:09.307Z,44.37
2018-02-20T10:56:36.718Z,41.23
2018-02-20T10:59:04.110Z,41.17
2018-02-20T11:01:31.519Z,45.70
2018-02-20T11:03:59.907Z,46.23
2018-02-20T11:06:27.323Z,48.17
2018-02-20T11:08:54.720Z,48.10
2018-02-20T11:11:22.126Z,48.13
2018-02-20T11:13:49.543Z,53.77
2018-02-20T11:16:16.946Z,49.63
2018-02-20T11:18:44.340Z,51.70
2018-02-20T11:21:11.738Z,60.83
2018-02-20T11:23:39.198Z,48.47
2018-02-20T11:26:06.650Z,50.97
2018-02-20T11:28:34.059Z,47.23
2018-02-20T11:31:01.460Z,58.30
2018-02-20T11:33:28.922Z,47.37
2018-02-20T11:35:56.323Z,55.50
2018-02-20T11:38:23.715Z,55.90
2018-02-20T11:40:51.106Z,55.80
2018-02-20T11:43:19.379Z,54.17
2018-02-20T11:45:46.777Z,52.87
2018-02-20T11:48:14.176Z,49.40
2018-02-20T11:50:41.707Z,48.27
2018-02-20T11:53:09.199Z,49.10
2018-02-20T11:55:36.598Z,53.83
2018-02-20T11:58:04.014Z,59.67
2018-02-20T12:00:31.408Z,51.80
2018-02-20T12:02:58.807Z,48.47
2018-02-20T12:05:26.220Z,51.57
2018-02-20T12:07:53.667Z,52.07
2018-02-20T12:10:21.011Z,52.43
2018-02-20T12:12:48.412Z,51.50
2018-02-20T12:15:15.805Z,50.13
2018-02-20T12:17:43.251Z,53.53
2018-02-20T12:20:10.647Z,51.70
2018-02-20T12:22:38.042Z,45.27
2018-02-20T12:25:05.437Z,54.60
2018-02-20T12:27:32.834Z,54.97
2018-02-20T12:30:00.231Z,49.97
2018-02-20T12:32:27.634Z,55.50
2018-02-20T12:34:55.035Z,52.90
2018-02-20T12:37:22.435Z,47.67
2018-02-20T12:39:49.851Z,48.83
2018-02-20T12:42:17.303Z,52.43
2018-02-20T12:44:44.721Z,51.33
2018-02-20T12:47:12.223Z,47.23
2018-02-20T12:49:39.618Z,49.80
2018-02-20T12:52:07.024Z,62.60
2018-02-20T12:54:34.515Z,43.97
2018-02-20T12:57:01.907Z,49.40
2018-02-20T12:59:29.304Z,51.80
2018-02-20T13:01:56.721Z,53.17
2018-02-20T13:04:24.111Z,52.07
2018-02-20T13:06:51.504Z,58.80
2018-02-20T13:09:18.974Z,58.27
2018-02-20T13:11:46.403Z,48.27
2018-02-20T13:14:13.843Z,53.77
2018-02-20T13:16:41.230Z,56.23
2018-02-20T13:19:08.639Z,58.40
2018-02-20T13:21:36.033Z,59.33
2018-02-20T13:24:03.453Z,55.97
2018-02-20T13:26:30.868Z,51.43
2018-02-20T13:28:58.263Z,51.60
2018-02-20T13:31:25.682Z,53.30
2018-02-20T13:33:53.176Z,54.63
2018-02-20T13:36:20.558Z,59.43
2018-02-20T13:38:47.969Z,56.00
2018-02-20T13:41:15.371Z,53.80
2018-02-20T13:43:42.767Z,59.77
2018-02-20T13:46:10.150Z,55.37
2018-02-20T13:48:37.556Z,51.03
2018-02-20T13:51:05.027Z,50.63
2018-02-20T13:56:06.232Z,50.60
2018-02-20T13:58:33.639Z,50.43
2018-02-20T14:01:01.034Z,64.63
2018-02-20T14:03:28.518Z,38.63
2018-02-20T14:05:55.907Z,66.97
2018-02-20T14:08:23.353Z,65.77
2018-02-20T14:10:50.742Z,54.50
2018-02-20T14:13:18.143Z,51.90
2018-02-20T14:15:45.539Z,63.73
2018-02-20T14:18:13.010Z,47.10
2018-02-20T14:20:40.419Z,43.67
2018-02-20T14:23:07.823Z,53.93
2018-02-20T14:25:35.211Z,54.13
2018-02-20T14:28:02.616Z,64.33
2018-02-20T14:30:30.034Z,53.27
2018-02-20T14:32:57.442Z,59.53
2018-02-20T14:35:24.834Z,45.90
2018-02-20T14:37:52.239Z,48.17
2018-02-20T14:40:19.638Z,56.80
2018-02-20T14:42:47.066Z,52.13
2018-02-20T14:45:14.475Z,56.53
2018-02-20T14:47:41.875Z,53.60
2018-02-20T14:50:09.262Z,52.90
2018-02-20T14:52:36.687Z,59.80
2018-02-20T14:55:04.071Z,57.30
2018-02-20T14:57:31.506Z,54.50
2018-02-20T14:59:58.946Z,47.67
2018-02-20T15:02:26.347Z,53.10
2018-02-20T15:04:53.738Z,51.07
2018-02-20T15:07:21.126Z,50.77
2018-02-20T15:09:48.550Z,55.63
2018-02-20T15:12:15.938Z,50.23
2018-02-20T15:14:43.335Z,54.47
2018-02-20T15:17:10.815Z,54.70
2018-02-20T15:19:38.212Z,49.47
2018-02-20T15:22:05.598Z,50.43
2018-02-20T15:24:32.996Z,52.30
2018-02-20T15:27:00.387Z,42.83
2018-02-20T15:29:27.788Z,49.60
2018-02-20T15:31:55.174Z,61.03
2018-02-20T15:34:22.588Z,50.40
2018-02-20T15:36:49.973Z,50.07
2018-02-20T15:39:17.424Z,53.70
2018-02-20T15:41:44.806Z,54.17
2018-02-20T15:44:12.237Z,53.30
2018-02-20T15:46:39.686Z,60.53
2018-02-20T15:49:07.158Z,55.67
2018-02-20T15:51:34.555Z,54.40
2018-02-20T15:54:01.954Z,60.13
2018-02-20T15:56:29.347Z,65.90
2018-02-20T15:58:56.742Z,55.53
2018-02-20T16:01:24.241Z,61.30
2018-02-20T16:03:51.631Z,57.13
2018-02-20T16:06:19.020Z,60.73
2018-02-20T16:08:46.414Z,58.50
2018-02-20T16:11:13.798Z,62.50
2018-02-20T16:13:41.194Z,54.17
2018-02-20T16:16:24.242Z,55.37
2018-02-20T16:18:51.643Z,61.77
2018-02-20T16:21:19.035Z,52.73
2018-02-20T16:23:46.503Z,54.30
2018-02-20T16:26:13.895Z,65.80
2018-02-20T16:28:41.310Z,59.07
2018-02-20T16:31:08.754Z,68.90
2018-02-20T16:33:36.218Z,60.37
2018-02-20T16:36:03.627Z,54.23
2018-02-20T16:38:31.006Z,56.40
2018-02-20T16:40:58.427Z,55.53
2018-02-20T16:43:25.835Z,58.30
2018-02-20T16:45:53.223Z,60.20
2018-02-20T16:48:20.647Z,62.47
2018-02-20T16:50:48.031Z,62.50
2018-02-20T16:53:15.426Z,60.53
2018-02-20T16:55:42.911Z,57.73
2018-02-20T16:58:10.314Z,56.13
2018-02-20T17:00:37.698Z,62.47
2018-02-20T17:03:05.095Z,57.37
2018-02-20T17:05:32.478Z,64.80
2018-02-20T17:07:59.917Z,57.37
2018-02-20T17:10:27.282Z,59.90
2018-02-20T17:12:54.670Z,63.23
2018-02-20T17:15:22.072Z,61.43
2018-02-20T17:17:49.458Z,67.63
2018-02-20T17:20:16.850Z,77.30
2018-02-20T17:22:44.321Z,64.87
2018-02-20T17:25:11.720Z,57.30
2018-02-20T17:27:39.103Z,63.50
2018-02-20T17:30:06.586Z,63.77
2018-02-20T17:32:33.975Z,54.33
2018-02-20T17:35:01.374Z,59.67
2018-02-20T17:37:28.857Z,57.20
2018-02-20T17:39:56.266Z,62.27
2018-02-20T17:42:23.703Z,63.77
2018-02-20T17:44:51.121Z,63.40
2018-02-20T17:47:18.513Z,60.57
2018-02-20T17:49:45.916Z,64.67
2018-02-20T17:52:13.302Z,76.27
2018-02-20T17:54:40.698Z,59.20
2018-02-20T17:57:08.095Z,57.93
2018-02-20T17:59:35.494Z,56.70
2018-02-20T18:02:02.879Z,59.13
2018-02-20T18:04:30.279Z,60.70
2018-02-20T18:06:57.680Z,69.43
2018-02-20T18:09:25.071Z,58.30
2018-02-20T18:11:52.474Z,69.67
2018-02-20T18:14:19.868Z,60.13
2018-02-20T18:16:47.335Z,57.30
2018-02-20T18:19:14.798Z,55.67
2018-02-20T18:21:42.193Z,62.97
2018-02-20T18:24:09.586Z,60.17
2018-02-20T18:26:36.991Z,61.63
2018-02-20T18:29:04.382Z,63.53
2018-02-20T18:31:31.790Z,63.72
2018-02-20T18:33:59.178Z,67.23
2018-02-20T18:36:26.579Z,69.33
2018-02-20T18:38:54.003Z,65.87
2018-02-20T18:41:21.403Z,60.10
2018-02-20T18:43:48.798Z,65.70
2018-02-20T18:46:16.202Z,61.87
2018-02-20T18:48:43.629Z,67.37
2018-02-20T18:51:11.006Z,61.93
2018-02-20T18:53:38.407Z,56.70
2018-02-20T18:56:05.790Z,65.37
2018-02-20T18:58:33.190Z,59.07
2018-02-20T19:01:00.639Z,66.33
2018-02-20T19:03:28.037Z,60.50
2018-02-20T19:05:55.430Z,57.20
2018-02-20T19:08:22.902Z,60.63
2018-02-20T19:10:50.326Z,59.53
2018-02-20T19:13:17.716Z,65.77
2018-02-20T19:15:45.106Z,63.90
2018-02-20T19:18:12.509Z,61.57
2018-02-20T19:20:39.946Z,58.53
2018-02-20T19:23:07.340Z,63.83
2018-02-20T19:25:34.730Z,59.50
2018-02-20T19:28:02.122Z,55.33
2018-02-20T19:30:29.517Z,62.77
2018-02-20T19:32:56.962Z,60.83
2018-02-20T19:35:24.346Z,63.17
2018-02-20T19:37:51.748Z,62.40
2018-02-20T19:40:19.142Z,60.87
2018-02-20T19:42:46.546Z,60.30
2018-02-20T19:45:13.938Z,63.40
2018-02-20T19:47:41.326Z,66.43
2018-02-20T19:50:08.734Z,59.03
2018-02-20T19:52:36.119Z,64.37
2018-02-20T19:55:03.514Z,68.27
2018-02-20T19:57:30.905Z,61.83
2018-02-20T19:59:58.314Z,71.87
2018-02-20T20:02:25.706Z,63.23
2018-02-20T20:04:53.107Z,61.97
2018-02-20T20:07:20.501Z,66.70
2018-02-20T20:09:47.900Z,77.57
2018-02-20T20:12:15.293Z,63.73
2018-02-20T20:14:42.690Z,60.07
2018-02-20T20:17:10.101Z,63.27
2018-02-20T20:19:37.487Z,61.40
2018-02-20T20:22:04.885Z,74.20
2018-02-20T20:24:32.320Z,71.17
2018-02-20T20:26:59.705Z,69.33
2018-02-20T20:29:27.099Z,69.17
2018-02-20T20:31:54.491Z,76.47
2018-02-20T20:34:21.887Z,68.93
2018-02-20T20:36:49.278Z,69.10
2018-02-20T20:39:16.675Z,64.60
2018-02-20T20:41:44.114Z,67.27
2018-02-20T20:44:11.524Z,69.47
2018-02-20T20:46:38.991Z,63.43
2018-02-20T20:49:06.462Z,66.77
2018-02-20T20:51:33.871Z,67.90
2018-02-20T20:54:01.258Z,71.30
2018-02-20T20:56:28.654Z,72.23
2018-02-20T20:58:56.046Z,76.27
2018-02-20T21:01:23.461Z,62.67
2018-02-20T21:03:50.863Z,69.17
2018-02-20T21:06:18.251Z,72.40
2018-02-20T21:08:45.643Z,61.93
2018-02-20T21:11:13.121Z,73.53
2018-02-20T21:13:40.514Z,64.20
2018-02-20T21:16:07.918Z,61.50
2018-02-20T21:18:35.303Z,69.90
2018-02-20T21:21:02.710Z,64.80
2018-02-20T21:23:30.101Z,65.93
2018-02-20T21:25:57.494Z,82.77
2018-02-20T21:28:24.909Z,69.07
2018-02-20T21:30:52.302Z,61.53
2018-02-20T21:33:19.694Z,59.40
2018-02-20T21:35:47.094Z,66.67
2018-02-20T21:38:14.484Z,73.57
2018-02-20T21:40:41.889Z,64.50
2018-02-20T21:43:09.274Z,67.37
2018-02-20T21:45:36.671Z,67.50
2018-02-20T21:48:04.063Z,70.40
2018-02-20T21:50:31.503Z,70.10
2018-02-20T21:52:58.899Z,60.53
2018-02-20T21:55:26.307Z,69.27
2018-02-20T21:57:53.698Z,63.10
2018-02-20T22:00:21.095Z,61.10
2018-02-20T22:02:48.495Z,63.17
2018-02-20T22:05:15.927Z,58.63
2018-02-20T22:07:43.312Z,64.07
2018-02-20T22:10:10.701Z,64.40
2018-02-20T22:12:38.103Z,59.47
2018-02-20T22:15:05.506Z,63.80
2018-02-20T22:17:32.902Z,61.77
2018-02-20T22:20:00.315Z,57.93
2018-02-20T22:22:27.703Z,68.93
2018-02-20T22:24:55.158Z,65.10
2018-02-20T22:27:22.624Z,65.57
2018-02-20T22:29:50.082Z,59.83
2018-02-20T22:32:17.494Z,59.40
2018-02-20T22:34:44.910Z,58.37
2018-02-20T22:37:12.299Z,64.03
2018-02-20T22:39:39.732Z,61.03
2018-02-20T22:42:07.127Z,63.97
2018-02-20T22:44:34.539Z,61.10
2018-02-20T22:47:01.994Z,59.97
2018-02-20T22:49:29.375Z,60.60
2018-02-20T22:51:56.846Z,59.83
2018-02-20T22:54:24.295Z,65.00
2018-02-20T22:56:51.722Z,47.33
2018-02-20T22:59:19.123Z,59.90
2018-02-20T23:01:46.523Z,60.15
2018-02-20T23:04:13.948Z,59.47
2018-02-20T23:06:41.355Z,59.43
2018-02-20T23:09:08.743Z,64.03
2018-02-20T23:11:43.838Z,54.80
2018-02-20T23:14:11.230Z,56.43
2018-02-20T23:16:38.630Z,55.17
2018-02-20T23:19:06.029Z,56.03
2018-02-20T23:21:33.428Z,62.13
2018-02-20T23:24:00.835Z,55.30
2018-02-20T23:26:28.242Z,55.50
2018-02-20T23:28:55.634Z,53.40
2018-02-20T23:31:23.048Z,56.07
2018-02-20T23:33:50.438Z,58.43
2018-02-20T23:36:17.851Z,57.30
2018-02-20T23:38:45.269Z,60.00
2018-02-20T23:41:12.673Z,51.50
2018-02-20T23:43:40.066Z,57.60
2018-02-20T23:46:07.514Z,53.17
2018-02-20T23:48:34.915Z,57.33
2018-02-20T23:51:07.818Z,58.07
2018-02-20T23:53:35.235Z,51.80
2018-02-20T23:56:02.647Z,57.37
2018-02-20T23:58:30.027Z,43.33
